sensor_id;sensor_type;location;lat;lon;timestamp;P1;durP1;ratioP1;P2;durP2;ratioP2
63902;SDS011;50072;50.678;13.938;2023-03-25T00:01:44;18.30;;;6.95;;
63902;SDS011;50072;50.678;13.938;2023-03-25T00:04:10;19.15;;;6.25;;
63902;SDS011;50072;50.678;13.938;2023-03-25T00:06:41;16.88;;;6.38;;
63902;SDS011;50072;50.678;13.938;2023-03-25T00:09:13;14.20;;;6.35;;
63902;SDS011;50072;50.678;13.938;2023-03-25T00:11:43;14.85;;;6.22;;
63902;SDS011;50072;50.678;13.938;2023-03-25T00:14:11;15.38;;;6.07;;
63902;SDS011;50072;50.678;13.938;2023-03-25T00:16:42;13.38;;;5.90;;
63902;SDS011;50072;50.678;13.938;2023-03-25T00:19:13;18.45;;;6.18;;
63902;SDS011;50072;50.678;13.938;2023-03-25T00:21:41;27.00;;;7.60;;
63902;SDS011;50072;50.678;13.938;2023-03-25T00:24:11;25.05;;;10.10;;
63902;SDS011;50072;50.678;13.938;2023-03-25T00:26:43;74.05;;;22.92;;
63902;SDS011;50072;50.678;13.938;2023-03-25T00:29:11;35.55;;;12.18;;
63902;SDS011;50072;50.678;13.938;2023-03-25T00:34:12;26.23;;;9.18;;
63902;SDS011;50072;50.678;13.938;2023-03-25T00:36:41;16.00;;;6.15;;
63902;SDS011;50072;50.678;13.938;2023-03-25T00:41:41;14.65;;;5.20;;
63902;SDS011;50072;50.678;13.938;2023-03-25T00:44:08;19.05;;;6.80;;
63902;SDS011;50072;50.678;13.938;2023-03-25T00:49:14;20.40;;;7.43;;
63902;SDS011;50072;50.678;13.938;2023-03-25T00:54:11;12.73;;;5.70;;
63902;SDS011;50072;50.678;13.938;2023-03-25T00:56:37;14.18;;;5.88;;
63902;SDS011;50072;50.678;13.938;2023-03-25T00:59:11;12.73;;;5.53;;
63902;SDS011;50072;50.678;13.938;2023-03-25T01:01:43;11.10;;;5.82;;
63902;SDS011;50072;50.678;13.938;2023-03-25T01:04:11;13.15;;;5.60;;
63902;SDS011;50072;50.678;13.938;2023-03-25T01:06:42;16.15;;;6.20;;
63902;SDS011;50072;50.678;13.938;2023-03-25T01:11:42;14.38;;;5.13;;
63902;SDS011;50072;50.678;13.938;2023-03-25T01:14:17;15.57;;;7.32;;
63902;SDS011;50072;50.678;13.938;2023-03-25T01:19:41;24.13;;;10.90;;
63902;SDS011;50072;50.678;13.938;2023-03-25T01:22:13;13.80;;;5.70;;
63902;SDS011;50072;50.678;13.938;2023-03-25T01:24:41;22.55;;;8.52;;
63902;SDS011;50072;50.678;13.938;2023-03-25T01:27:09;94.63;;;30.85;;
63902;SDS011;50072;50.678;13.938;2023-03-25T01:29:41;34.67;;;12.48;;
63902;SDS011;50072;50.678;13.938;2023-03-25T01:32:13;26.83;;;9.48;;
63902;SDS011;50072;50.678;13.938;2023-03-25T01:34:41;46.85;;;16.33;;
63902;SDS011;50072;50.678;13.938;2023-03-25T01:37:11;31.92;;;11.95;;
63902;SDS011;50072;50.678;13.938;2023-03-25T01:39:41;27.92;;;10.52;;
63902;SDS011;50072;50.678;13.938;2023-03-25T01:49:42;20.15;;;7.50;;
63902;SDS011;50072;50.678;13.938;2023-03-25T01:54:56;14.35;;;5.32;;
63902;SDS011;50072;50.678;13.938;2023-03-25T02:00:12;26.80;;;8.55;;
63902;SDS011;50072;50.678;13.938;2023-03-25T02:02:40;52.40;;;19.52;;
63902;SDS011;50072;50.678;13.938;2023-03-25T02:08:12;17.40;;;7.43;;
63902;SDS011;50072;50.678;13.938;2023-03-25T02:10:46;33.00;;;10.52;;
63902;SDS011;50072;50.678;13.938;2023-03-25T02:13:13;19.55;;;6.72;;
63902;SDS011;50072;50.678;13.938;2023-03-25T02:22:05;14.60;;;6.13;;
63902;SDS011;50072;50.678;13.938;2023-03-25T02:27:47;15.13;;;6.70;;
63902;SDS011;50072;50.678;13.938;2023-03-25T02:37:17;35.47;;;12.85;;
63902;SDS011;50072;50.678;13.938;2023-03-25T02:45:43;16.70;;;7.15;;
63902;SDS011;50072;50.678;13.938;2023-03-25T02:48:18;27.80;;;10.02;;
63902;SDS011;50072;50.678;13.938;2023-03-25T02:53:29;20.67;;;7.28;;
63902;SDS011;50072;50.678;13.938;2023-03-25T02:58:43;18.50;;;6.50;;
63902;SDS011;50072;50.678;13.938;2023-03-25T03:01:11;18.33;;;7.13;;
63902;SDS011;50072;50.678;13.938;2023-03-25T03:03:45;19.48;;;6.43;;
63902;SDS011;50072;50.678;13.938;2023-03-25T03:06:14;14.63;;;6.35;;
63902;SDS011;50072;50.678;13.938;2023-03-25T03:26:07;12.65;;;4.63;;
63902;SDS011;50072;50.678;13.938;2023-03-25T03:31:33;11.30;;;4.43;;
63902;SDS011;50072;50.678;13.938;2023-03-25T03:37:00;12.32;;;5.00;;
63902;SDS011;50072;50.678;13.938;2023-03-25T03:39:42;12.75;;;5.22;;
63902;SDS011;50072;50.678;13.938;2023-03-25T03:45:07;12.95;;;5.45;;
63902;SDS011;50072;50.678;13.938;2023-03-25T03:47:42;12.35;;;4.88;;
63902;SDS011;50072;50.678;13.938;2023-03-25T03:50:14;12.95;;;5.20;;
63902;SDS011;50072;50.678;13.938;2023-03-25T03:53:19;12.63;;;5.30;;
63902;SDS011;50072;50.678;13.938;2023-03-25T03:56:14;12.57;;;5.30;;
63902;SDS011;50072;50.678;13.938;2023-03-25T03:58:53;16.50;;;7.18;;
63902;SDS011;50072;50.678;13.938;2023-03-25T04:01:57;17.23;;;6.50;;
63902;SDS011;50072;50.678;13.938;2023-03-25T04:04:19;17.70;;;6.07;;
63902;SDS011;50072;50.678;13.938;2023-03-25T04:09:50;16.15;;;5.78;;
63902;SDS011;50072;50.678;13.938;2023-03-25T04:12:30;16.15;;;6.07;;
63902;SDS011;50072;50.678;13.938;2023-03-25T04:15:01;13.07;;;6.00;;
63902;SDS011;50072;50.678;13.938;2023-03-25T04:17:28;9.70;;;5.75;;
63902;SDS011;50072;50.678;13.938;2023-03-25T04:19:57;11.27;;;5.35;;
63902;SDS011;50072;50.678;13.938;2023-03-25T04:22:24;11.00;;;5.95;;
63902;SDS011;50072;50.678;13.938;2023-03-25T04:24:50;10.73;;;5.32;;
63902;SDS011;50072;50.678;13.938;2023-03-25T04:27:20;14.93;;;5.93;;
63902;SDS011;50072;50.678;13.938;2023-03-25T04:29:50;12.85;;;5.57;;
63902;SDS011;50072;50.678;13.938;2023-03-25T04:32:16;10.30;;;5.43;;
63902;SDS011;50072;50.678;13.938;2023-03-25T04:34:42;15.93;;;5.63;;
63902;SDS011;50072;50.678;13.938;2023-03-25T04:39:41;12.82;;;5.60;;
63902;SDS011;50072;50.678;13.938;2023-03-25T04:42:12;15.60;;;7.00;;
63902;SDS011;50072;50.678;13.938;2023-03-25T04:44:43;13.57;;;6.30;;
63902;SDS011;50072;50.678;13.938;2023-03-25T04:47:11;14.55;;;5.95;;
63902;SDS011;50072;50.678;13.938;2023-03-25T04:49:39;14.48;;;6.22;;
63902;SDS011;50072;50.678;13.938;2023-03-25T04:52:09;16.60;;;6.95;;
63902;SDS011;50072;50.678;13.938;2023-03-25T04:54:37;12.57;;;6.30;;
63902;SDS011;50072;50.678;13.938;2023-03-25T04:57:04;15.18;;;7.00;;
63902;SDS011;50072;50.678;13.938;2023-03-25T04:59:34;19.80;;;7.05;;
63902;SDS011;50072;50.678;13.938;2023-03-25T05:02:01;13.10;;;5.95;;
63902;SDS011;50072;50.678;13.938;2023-03-25T05:04:30;16.25;;;6.68;;
63902;SDS011;50072;50.678;13.938;2023-03-25T05:06:58;13.85;;;6.57;;
63902;SDS011;50072;50.678;13.938;2023-03-25T05:09:24;14.13;;;6.38;;
63902;SDS011;50072;50.678;13.938;2023-03-25T05:11:51;13.27;;;6.07;;
63902;SDS011;50072;50.678;13.938;2023-03-25T05:14:18;12.82;;;6.43;;
63902;SDS011;50072;50.678;13.938;2023-03-25T05:16:46;14.77;;;5.90;;
63902;SDS011;50072;50.678;13.938;2023-03-25T05:19:13;14.45;;;6.45;;
63902;SDS011;50072;50.678;13.938;2023-03-25T05:21:39;12.52;;;6.10;;
63902;SDS011;50072;50.678;13.938;2023-03-25T05:24:07;13.93;;;6.10;;
63902;SDS011;50072;50.678;13.938;2023-03-25T05:26:37;12.82;;;6.28;;
63902;SDS011;50072;50.678;13.938;2023-03-25T05:29:12;18.23;;;7.30;;
63902;SDS011;50072;50.678;13.938;2023-03-25T05:31:40;13.70;;;6.28;;
63902;SDS011;50072;50.678;13.938;2023-03-25T05:34:08;13.77;;;6.30;;
63902;SDS011;50072;50.678;13.938;2023-03-25T05:36:37;12.35;;;5.82;;
63902;SDS011;50072;50.678;13.938;2023-03-25T05:39:04;13.18;;;5.90;;
63902;SDS011;50072;50.678;13.938;2023-03-25T05:41:30;18.27;;;7.65;;
63902;SDS011;50072;50.678;13.938;2023-03-25T05:44:04;14.50;;;6.95;;
63902;SDS011;50072;50.678;13.938;2023-03-25T05:46:33;12.75;;;5.68;;
63902;SDS011;50072;50.678;13.938;2023-03-25T05:49:01;16.30;;;6.95;;
63902;SDS011;50072;50.678;13.938;2023-03-25T05:51:35;17.92;;;7.53;;
63902;SDS011;50072;50.678;13.938;2023-03-25T05:54:05;16.05;;;7.18;;
63902;SDS011;50072;50.678;13.938;2023-03-25T05:56:35;13.50;;;6.90;;
63902;SDS011;50072;50.678;13.938;2023-03-25T05:59:12;15.25;;;6.50;;
63902;SDS011;50072;50.678;13.938;2023-03-25T06:01:44;13.30;;;6.88;;
63902;SDS011;50072;50.678;13.938;2023-03-25T06:04:11;15.80;;;7.43;;
63902;SDS011;50072;50.678;13.938;2023-03-25T06:06:37;13.52;;;6.93;;
63902;SDS011;50072;50.678;13.938;2023-03-25T06:09:05;12.95;;;6.72;;
63902;SDS011;50072;50.678;13.938;2023-03-25T06:11:31;16.30;;;7.10;;
63902;SDS011;50072;50.678;13.938;2023-03-25T06:14:04;13.43;;;6.78;;
63902;SDS011;50072;50.678;13.938;2023-03-25T06:16:31;15.80;;;6.95;;
63902;SDS011;50072;50.678;13.938;2023-03-25T06:18:58;14.82;;;7.13;;
63902;SDS011;50072;50.678;13.938;2023-03-25T06:21:26;14.00;;;6.93;;
63902;SDS011;50072;50.678;13.938;2023-03-25T06:26:24;15.25;;;7.20;;
63902;SDS011;50072;50.678;13.938;2023-03-25T06:29:07;11.02;;;6.43;;
63902;SDS011;50072;50.678;13.938;2023-03-25T06:31:37;15.07;;;6.28;;
63902;SDS011;50072;50.678;13.938;2023-03-25T06:34:11;12.57;;;6.00;;
63902;SDS011;50072;50.678;13.938;2023-03-25T06:36:43;13.77;;;6.30;;
63902;SDS011;50072;50.678;13.938;2023-03-25T06:39:11;12.20;;;6.72;;
63902;SDS011;50072;50.678;13.938;2023-03-25T06:41:44;12.45;;;6.05;;
63902;SDS011;50072;50.678;13.938;2023-03-25T06:44:12;13.02;;;5.70;;
63902;SDS011;50072;50.678;13.938;2023-03-25T06:46:37;13.27;;;5.88;;
63902;SDS011;50072;50.678;13.938;2023-03-25T06:49:05;10.40;;;5.68;;
63902;SDS011;50072;50.678;13.938;2023-03-25T06:51:39;11.52;;;6.13;;
63902;SDS011;50072;50.678;13.938;2023-03-25T06:54:08;8.88;;;4.40;;
63902;SDS011;50072;50.678;13.938;2023-03-25T06:56:34;8.82;;;4.13;;
63902;SDS011;50072;50.678;13.938;2023-03-25T06:59:01;5.57;;;3.00;;
63902;SDS011;50072;50.678;13.938;2023-03-25T07:03:58;6.65;;;3.65;;
63902;SDS011;50072;50.678;13.938;2023-03-25T07:06:33;4.47;;;2.20;;
63902;SDS011;50072;50.678;13.938;2023-03-25T07:09:07;4.55;;;1.92;;
63902;SDS011;50072;50.678;13.938;2023-03-25T07:11:43;4.10;;;1.80;;
63902;SDS011;50072;50.678;13.938;2023-03-25T07:14:12;6.65;;;1.80;;
63902;SDS011;50072;50.678;13.938;2023-03-25T07:16:38;5.32;;;1.98;;
63902;SDS011;50072;50.678;13.938;2023-03-25T07:19:05;9.07;;;2.63;;
63902;SDS011;50072;50.678;13.938;2023-03-25T07:21:39;3.47;;;1.55;;
63902;SDS011;50072;50.678;13.938;2023-03-25T07:24:07;5.18;;;1.30;;
63902;SDS011;50072;50.678;13.938;2023-03-25T07:26:38;4.20;;;1.20;;
63902;SDS011;50072;50.678;13.938;2023-03-25T07:29:11;4.50;;;1.20;;
63902;SDS011;50072;50.678;13.938;2023-03-25T07:31:39;3.38;;;1.10;;
63902;SDS011;50072;50.678;13.938;2023-03-25T07:34:13;3.25;;;1.00;;
63902;SDS011;50072;50.678;13.938;2023-03-25T07:36:42;8.48;;;1.73;;
63902;SDS011;50072;50.678;13.938;2023-03-25T07:39:09;5.03;;;1.80;;
63902;SDS011;50072;50.678;13.938;2023-03-25T07:41:39;8.43;;;2.60;;
63902;SDS011;50072;50.678;13.938;2023-03-25T07:44:06;5.05;;;1.88;;
63902;SDS011;50072;50.678;13.938;2023-03-25T07:46:33;2.42;;;1.20;;
63902;SDS011;50072;50.678;13.938;2023-03-25T07:48:59;4.57;;;1.02;;
63902;SDS011;50072;50.678;13.938;2023-03-25T07:51:25;1.63;;;0.60;;
63902;SDS011;50072;50.678;13.938;2023-03-25T07:53:51;2.85;;;0.70;;
63902;SDS011;50072;50.678;13.938;2023-03-25T07:56:18;9.52;;;2.30;;
63902;SDS011;50072;50.678;13.938;2023-03-25T07:58:44;3.30;;;0.60;;
63902;SDS011;50072;50.678;13.938;2023-03-25T08:01:11;7.00;;;0.95;;
63902;SDS011;50072;50.678;13.938;2023-03-25T08:03:37;2.78;;;1.00;;
63902;SDS011;50072;50.678;13.938;2023-03-25T08:06:06;2.72;;;1.10;;
63902;SDS011;50072;50.678;13.938;2023-03-25T08:08:33;3.42;;;1.05;;
63902;SDS011;50072;50.678;13.938;2023-03-25T08:11:06;8.48;;;1.02;;
63902;SDS011;50072;50.678;13.938;2023-03-25T08:13:33;4.25;;;1.25;;
63902;SDS011;50072;50.678;13.938;2023-03-25T08:16:14;2.65;;;1.20;;
63902;SDS011;50072;50.678;13.938;2023-03-25T08:18:41;4.73;;;1.40;;
63902;SDS011;50072;50.678;13.938;2023-03-25T08:21:12;3.75;;;1.30;;
63902;SDS011;50072;50.678;13.938;2023-03-25T08:23:38;9.65;;;3.22;;
63902;SDS011;50072;50.678;13.938;2023-03-25T08:26:07;4.45;;;1.70;;
63902;SDS011;50072;50.678;13.938;2023-03-25T08:28:35;5.75;;;1.60;;
63902;SDS011;50072;50.678;13.938;2023-03-25T08:31:04;7.43;;;2.40;;
63902;SDS011;50072;50.678;13.938;2023-03-25T08:36:05;6.75;;;2.83;;
63902;SDS011;50072;50.678;13.938;2023-03-25T08:38:36;8.60;;;3.25;;
63902;SDS011;50072;50.678;13.938;2023-03-25T08:41:07;6.88;;;2.67;;
63902;SDS011;50072;50.678;13.938;2023-03-25T08:43:42;5.63;;;2.30;;
63902;SDS011;50072;50.678;13.938;2023-03-25T08:48:42;6.03;;;1.83;;
63902;SDS011;50072;50.678;13.938;2023-03-25T08:51:12;10.38;;;2.55;;
63902;SDS011;50072;50.678;13.938;2023-03-25T08:53:37;4.85;;;1.80;;
63902;SDS011;50072;50.678;13.938;2023-03-25T08:56:12;5.28;;;1.52;;
63902;SDS011;50072;50.678;13.938;2023-03-25T09:01:09;8.40;;;2.95;;
63902;SDS011;50072;50.678;13.938;2023-03-25T09:03:43;9.35;;;3.55;;
63902;SDS011;50072;50.678;13.938;2023-03-25T09:06:14;5.68;;;2.15;;
63902;SDS011;50072;50.678;13.938;2023-03-25T09:08:42;9.32;;;3.83;;
63902;SDS011;50072;50.678;13.938;2023-03-25T09:11:08;5.57;;;2.25;;
63902;SDS011;50072;50.678;13.938;2023-03-25T09:13:40;11.68;;;3.53;;
63902;SDS011;50072;50.678;13.938;2023-03-25T09:16:07;14.07;;;4.70;;
63902;SDS011;50072;50.678;13.938;2023-03-25T09:18:36;8.98;;;3.50;;
63902;SDS011;50072;50.678;13.938;2023-03-25T09:21:01;13.05;;;4.10;;
63902;SDS011;50072;50.678;13.938;2023-03-25T09:23:28;5.80;;;2.35;;
63902;SDS011;50072;50.678;13.938;2023-03-25T09:25:54;10.07;;;3.22;;
63902;SDS011;50072;50.678;13.938;2023-03-25T09:28:24;4.90;;;1.90;;
63902;SDS011;50072;50.678;13.938;2023-03-25T09:30:50;10.35;;;3.60;;
63902;SDS011;50072;50.678;13.938;2023-03-25T09:33:18;3.75;;;1.45;;
63902;SDS011;50072;50.678;13.938;2023-03-25T09:35:43;3.15;;;1.05;;
63902;SDS011;50072;50.678;13.938;2023-03-25T09:38:09;3.38;;;1.20;;
63902;SDS011;50072;50.678;13.938;2023-03-25T09:40:35;3.80;;;0.93;;
63902;SDS011;50072;50.678;13.938;2023-03-25T09:46:11;4.03;;;1.45;;
63902;SDS011;50072;50.678;13.938;2023-03-25T09:48:43;9.05;;;3.83;;
63902;SDS011;50072;50.678;13.938;2023-03-25T09:56:31;2.75;;;0.85;;
63902;SDS011;50072;50.678;13.938;2023-03-25T10:09:59;3.58;;;1.40;;
63902;SDS011;50072;50.678;13.938;2023-03-25T10:26:02;2.65;;;0.73;;
63902;SDS011;50072;50.678;13.938;2023-03-25T10:28:34;3.40;;;0.77;;
63902;SDS011;50072;50.678;13.938;2023-03-25T10:31:12;5.60;;;1.30;;
63902;SDS011;50072;50.678;13.938;2023-03-25T10:33:52;2.67;;;1.00;;
63902;SDS011;50072;50.678;13.938;2023-03-25T10:36:24;2.03;;;0.65;;
63902;SDS011;50072;50.678;13.938;2023-03-25T10:39:13;1.48;;;0.82;;
63902;SDS011;50072;50.678;13.938;2023-03-25T10:41:58;2.47;;;1.20;;
63902;SDS011;50072;50.678;13.938;2023-03-25T10:44:30;3.00;;;0.88;;
63902;SDS011;50072;50.678;13.938;2023-03-25T10:47:07;1.85;;;0.60;;
63902;SDS011;50072;50.678;13.938;2023-03-25T10:49:45;1.52;;;0.80;;
63902;SDS011;50072;50.678;13.938;2023-03-25T10:52:15;3.40;;;1.42;;
63902;SDS011;50072;50.678;13.938;2023-03-25T10:54:44;6.18;;;2.78;;
63902;SDS011;50072;50.678;13.938;2023-03-25T10:57:21;4.32;;;1.90;;
63902;SDS011;50072;50.678;13.938;2023-03-25T11:02:43;5.13;;;1.90;;
63902;SDS011;50072;50.678;13.938;2023-03-25T11:05:10;2.80;;;1.20;;
63902;SDS011;50072;50.678;13.938;2023-03-25T11:07:43;3.45;;;1.75;;
63902;SDS011;50072;50.678;13.938;2023-03-25T11:10:15;4.53;;;1.10;;
63902;SDS011;50072;50.678;13.938;2023-03-25T11:12:52;4.07;;;2.00;;
63902;SDS011;50072;50.678;13.938;2023-03-25T11:15:34;5.78;;;2.55;;
63902;SDS011;50072;50.678;13.938;2023-03-25T11:21:02;3.85;;;1.25;;
63902;SDS011;50072;50.678;13.938;2023-03-25T11:23:50;4.07;;;1.20;;
63902;SDS011;50072;50.678;13.938;2023-03-25T11:31:36;2.83;;;0.40;;
63902;SDS011;50072;50.678;13.938;2023-03-25T11:36:35;1.95;;;0.63;;
63902;SDS011;50072;50.678;13.938;2023-03-25T11:41:51;6.13;;;1.73;;
63902;SDS011;50072;50.678;13.938;2023-03-25T11:44:20;7.30;;;2.20;;
63902;SDS011;50072;50.678;13.938;2023-03-25T11:49:38;2.53;;;0.75;;
63902;SDS011;50072;50.678;13.938;2023-03-25T11:54:43;4.38;;;1.65;;
63902;SDS011;50072;50.678;13.938;2023-03-25T11:57:32;1.73;;;0.90;;
63902;SDS011;50072;50.678;13.938;2023-03-25T12:00:15;2.50;;;0.73;;
63902;SDS011;50072;50.678;13.938;2023-03-25T12:05:27;3.03;;;0.70;;
63902;SDS011;50072;50.678;13.938;2023-03-25T12:07:59;1.40;;;0.45;;
63902;SDS011;50072;50.678;13.938;2023-03-25T12:13:40;0.95;;;0.63;;
63902;SDS011;50072;50.678;13.938;2023-03-25T12:19:12;2.30;;;1.00;;
63902;SDS011;50072;50.678;13.938;2023-03-25T12:21:48;3.78;;;1.23;;
63902;SDS011;50072;50.678;13.938;2023-03-25T12:31:19;2.25;;;0.98;;
63902;SDS011;50072;50.678;13.938;2023-03-25T12:37:41;0.82;;;0.40;;
63902;SDS011;50072;50.678;13.938;2023-03-25T12:40:09;2.95;;;0.73;;
63902;SDS011;50072;50.678;13.938;2023-03-25T12:57:03;4.47;;;0.82;;
63902;SDS011;50072;50.678;13.938;2023-03-25T13:11:43;1.20;;;0.57;;
63902;SDS011;50072;50.678;13.938;2023-03-25T13:14:31;2.03;;;0.70;;
63902;SDS011;50072;50.678;13.938;2023-03-25T13:20:30;2.17;;;0.90;;
63902;SDS011;50072;50.678;13.938;2023-03-25T13:23:04;2.22;;;1.00;;
63902;SDS011;50072;50.678;13.938;2023-03-25T13:31:31;2.70;;;0.70;;
63902;SDS011;50072;50.678;13.938;2023-03-25T13:40:17;1.60;;;0.60;;
63902;SDS011;50072;50.678;13.938;2023-03-25T13:51:24;3.75;;;1.42;;
63902;SDS011;50072;50.678;13.938;2023-03-25T14:08:01;2.97;;;0.90;;
63902;SDS011;50072;50.678;13.938;2023-03-25T14:10:45;1.60;;;0.73;;
63902;SDS011;50072;50.678;13.938;2023-03-25T14:24:15;2.97;;;0.95;;
63902;SDS011;50072;50.678;13.938;2023-03-25T14:26:52;6.75;;;1.23;;
63902;SDS011;50072;50.678;13.938;2023-03-25T14:29:42;3.20;;;1.00;;
63902;SDS011;50072;50.678;13.938;2023-03-25T14:34:41;4.82;;;1.23;;
63902;SDS011;50072;50.678;13.938;2023-03-25T14:37:14;7.40;;;1.10;;
63902;SDS011;50072;50.678;13.938;2023-03-25T14:39:43;2.78;;;0.82;;
63902;SDS011;50072;50.678;13.938;2023-03-25T14:42:22;6.53;;;1.30;;
63902;SDS011;50072;50.678;13.938;2023-03-25T14:44:51;6.68;;;1.48;;
63902;SDS011;50072;50.678;13.938;2023-03-25T14:49:49;4.88;;;1.52;;
63902;SDS011;50072;50.678;13.938;2023-03-25T14:52:44;4.28;;;1.33;;
63902;SDS011;50072;50.678;13.938;2023-03-25T14:58:19;4.87;;;1.50;;
63902;SDS011;50072;50.678;13.938;2023-03-25T15:01:13;6.30;;;2.33;;
63902;SDS011;50072;50.678;13.938;2023-03-25T15:03:42;3.15;;;1.40;;
63902;SDS011;50072;50.678;13.938;2023-03-25T15:06:16;5.72;;;1.70;;
63902;SDS011;50072;50.678;13.938;2023-03-25T15:08:55;3.75;;;1.30;;
63902;SDS011;50072;50.678;13.938;2023-03-25T15:14:34;2.20;;;1.00;;
63902;SDS011;50072;50.678;13.938;2023-03-25T15:17:10;4.18;;;1.02;;
63902;SDS011;50072;50.678;13.938;2023-03-25T15:22:33;1.40;;;0.88;;
63902;SDS011;50072;50.678;13.938;2023-03-25T15:25:14;1.38;;;0.65;;
63902;SDS011;50072;50.678;13.938;2023-03-25T15:56:00;2.00;;;1.00;;
63902;SDS011;50072;50.678;13.938;2023-03-25T15:58:36;2.50;;;0.98;;
63902;SDS011;50072;50.678;13.938;2023-03-25T16:01:17;2.60;;;0.88;;
63902;SDS011;50072;50.678;13.938;2023-03-25T16:03:55;2.27;;;0.70;;
63902;SDS011;50072;50.678;13.938;2023-03-25T16:06:51;1.92;;;0.73;;
63902;SDS011;50072;50.678;13.938;2023-03-25T16:09:22;2.95;;;1.20;;
63902;SDS011;50072;50.678;13.938;2023-03-25T16:15:03;1.38;;;0.55;;
63902;SDS011;50072;50.678;13.938;2023-03-25T16:17:31;1.60;;;0.80;;
63902;SDS011;50072;50.678;13.938;2023-03-25T16:20:00;4.05;;;1.00;;
63902;SDS011;50072;50.678;13.938;2023-03-25T16:22:27;3.53;;;1.33;;
63902;SDS011;50072;50.678;13.938;2023-03-25T16:24:56;3.38;;;1.20;;
63902;SDS011;50072;50.678;13.938;2023-03-25T16:29:56;3.60;;;1.35;;
63902;SDS011;50072;50.678;13.938;2023-03-25T16:32:40;2.38;;;1.13;;
63902;SDS011;50072;50.678;13.938;2023-03-25T16:35:29;3.30;;;1.15;;
63902;SDS011;50072;50.678;13.938;2023-03-25T16:37:57;1.80;;;1.15;;
63902;SDS011;50072;50.678;13.938;2023-03-25T16:40:27;2.95;;;1.00;;
63902;SDS011;50072;50.678;13.938;2023-03-25T16:45:47;3.83;;;1.65;;
63902;SDS011;50072;50.678;13.938;2023-03-25T16:48:18;1.92;;;0.80;;
63902;SDS011;50072;50.678;13.938;2023-03-25T16:53:41;3.35;;;1.40;;
63902;SDS011;50072;50.678;13.938;2023-03-25T16:58:34;3.40;;;1.55;;
63902;SDS011;50072;50.678;13.938;2023-03-25T17:01:07;3.78;;;1.10;;
63902;SDS011;50072;50.678;13.938;2023-03-25T17:03:41;2.35;;;1.00;;
63902;SDS011;50072;50.678;13.938;2023-03-25T17:06:15;3.72;;;1.23;;
63902;SDS011;50072;50.678;13.938;2023-03-25T17:08:47;6.55;;;1.60;;
63902;SDS011;50072;50.678;13.938;2023-03-25T17:11:23;3.15;;;1.35;;
63902;SDS011;50072;50.678;13.938;2023-03-25T17:13:52;1.42;;;0.65;;
63902;SDS011;50072;50.678;13.938;2023-03-25T17:16:30;1.40;;;0.80;;
63902;SDS011;50072;50.678;13.938;2023-03-25T17:18:58;2.95;;;1.10;;
63902;SDS011;50072;50.678;13.938;2023-03-25T17:21:28;1.42;;;0.95;;
63902;SDS011;50072;50.678;13.938;2023-03-25T17:24:06;1.85;;;1.00;;
63902;SDS011;50072;50.678;13.938;2023-03-25T17:26:53;2.78;;;0.88;;
63902;SDS011;50072;50.678;13.938;2023-03-25T17:29:20;5.00;;;1.67;;
63902;SDS011;50072;50.678;13.938;2023-03-25T17:31:57;7.70;;;2.47;;
63902;SDS011;50072;50.678;13.938;2023-03-25T17:34:24;2.22;;;1.27;;
63902;SDS011;50072;50.678;13.938;2023-03-25T17:36:55;1.67;;;0.65;;
63902;SDS011;50072;50.678;13.938;2023-03-25T17:39:24;2.67;;;0.90;;
63902;SDS011;50072;50.678;13.938;2023-03-25T17:44:35;4.15;;;1.45;;
63902;SDS011;50072;50.678;13.938;2023-03-25T17:47:11;3.95;;;1.40;;
63902;SDS011;50072;50.678;13.938;2023-03-25T17:49:39;3.10;;;1.30;;
63902;SDS011;50072;50.678;13.938;2023-03-25T17:52:05;5.55;;;1.92;;
63902;SDS011;50072;50.678;13.938;2023-03-25T17:54:35;4.07;;;1.40;;
63902;SDS011;50072;50.678;13.938;2023-03-25T17:57:10;3.20;;;1.40;;
63902;SDS011;50072;50.678;13.938;2023-03-25T17:59:42;2.58;;;1.27;;
63902;SDS011;50072;50.678;13.938;2023-03-25T18:02:10;3.45;;;1.92;;
63902;SDS011;50072;50.678;13.938;2023-03-25T18:04:37;7.32;;;2.88;;
63902;SDS011;50072;50.678;13.938;2023-03-25T18:07:03;6.45;;;1.70;;
63902;SDS011;50072;50.678;13.938;2023-03-25T18:09:29;5.40;;;1.65;;
63902;SDS011;50072;50.678;13.938;2023-03-25T18:11:56;7.30;;;2.70;;
63902;SDS011;50072;50.678;13.938;2023-03-25T18:14:23;6.72;;;1.92;;
63902;SDS011;50072;50.678;13.938;2023-03-25T18:16:51;8.85;;;2.30;;
63902;SDS011;50072;50.678;13.938;2023-03-25T18:19:24;5.90;;;2.28;;
63902;SDS011;50072;50.678;13.938;2023-03-25T18:24:32;4.82;;;2.65;;
63902;SDS011;50072;50.678;13.938;2023-03-25T18:27:05;7.68;;;3.03;;
63902;SDS011;50072;50.678;13.938;2023-03-25T18:29:39;6.35;;;2.97;;
63902;SDS011;50072;50.678;13.938;2023-03-25T18:32:05;5.65;;;2.33;;
63902;SDS011;50072;50.678;13.938;2023-03-25T18:34:41;3.67;;;1.95;;
63902;SDS011;50072;50.678;13.938;2023-03-25T18:37:13;7.45;;;3.17;;
63902;SDS011;50072;50.678;13.938;2023-03-25T18:39:44;7.80;;;4.57;;
63902;SDS011;50072;50.678;13.938;2023-03-25T18:42:10;7.15;;;3.17;;
63902;SDS011;50072;50.678;13.938;2023-03-25T18:44:36;5.75;;;2.83;;
63902;SDS011;50072;50.678;13.938;2023-03-25T18:47:03;7.82;;;3.45;;
63902;SDS011;50072;50.678;13.938;2023-03-25T18:49:29;12.48;;;5.28;;
63902;SDS011;50072;50.678;13.938;2023-03-25T18:51:55;12.48;;;5.03;;
63902;SDS011;50072;50.678;13.938;2023-03-25T18:54:23;11.18;;;5.72;;
63902;SDS011;50072;50.678;13.938;2023-03-25T18:56:51;9.32;;;4.57;;
63902;SDS011;50072;50.678;13.938;2023-03-25T18:59:17;10.65;;;5.20;;
63902;SDS011;50072;50.678;13.938;2023-03-25T19:01:43;9.07;;;4.25;;
63902;SDS011;50072;50.678;13.938;2023-03-25T19:04:09;12.25;;;5.35;;
63902;SDS011;50072;50.678;13.938;2023-03-25T19:06:35;9.45;;;4.70;;
63902;SDS011;50072;50.678;13.938;2023-03-25T19:09:03;11.45;;;4.82;;
63902;SDS011;50072;50.678;13.938;2023-03-25T19:11:29;10.85;;;5.22;;
63902;SDS011;50072;50.678;13.938;2023-03-25T19:13:58;11.02;;;5.75;;
63902;SDS011;50072;50.678;13.938;2023-03-25T19:16:24;17.48;;;7.57;;
63902;SDS011;50072;50.678;13.938;2023-03-25T19:18:50;38.13;;;18.65;;
63902;SDS011;50072;50.678;13.938;2023-03-25T19:21:17;34.97;;;19.35;;
63902;SDS011;50072;50.678;13.938;2023-03-25T19:23:44;32.85;;;15.30;;
63902;SDS011;50072;50.678;13.938;2023-03-25T19:26:11;33.03;;;17.60;;
63902;SDS011;50072;50.678;13.938;2023-03-25T19:28:43;26.08;;;13.50;;
63902;SDS011;50072;50.678;13.938;2023-03-25T19:31:11;17.65;;;8.50;;
63902;SDS011;50072;50.678;13.938;2023-03-25T19:33:42;21.35;;;11.63;;
63902;SDS011;50072;50.678;13.938;2023-03-25T19:36:10;19.50;;;11.10;;
63902;SDS011;50072;50.678;13.938;2023-03-25T19:38:43;29.55;;;15.57;;
63902;SDS011;50072;50.678;13.938;2023-03-25T19:41:13;23.02;;;12.10;;
63902;SDS011;50072;50.678;13.938;2023-03-25T19:43:42;27.08;;;14.90;;
63902;SDS011;50072;50.678;13.938;2023-03-25T19:46:08;20.88;;;12.60;;
63902;SDS011;50072;50.678;13.938;2023-03-25T19:48:34;22.92;;;13.45;;
63902;SDS011;50072;50.678;13.938;2023-03-25T19:51:00;31.05;;;17.02;;
63902;SDS011;50072;50.678;13.938;2023-03-25T19:53:27;32.55;;;17.73;;
63902;SDS011;50072;50.678;13.938;2023-03-25T19:55:53;30.08;;;15.35;;
63902;SDS011;50072;50.678;13.938;2023-03-25T19:58:19;20.95;;;10.60;;
63902;SDS011;50072;50.678;13.938;2023-03-25T20:00:47;21.20;;;10.05;;
63902;SDS011;50072;50.678;13.938;2023-03-25T20:03:13;39.95;;;16.20;;
63902;SDS011;50072;50.678;13.938;2023-03-25T20:05:40;24.73;;;11.55;;